sensor_id;sensor_type;location;lat;lon;timestamp;temperature;humidity
65378;SHT31;51982;51.042;13.806;2023-06-10T00:01:21;21.96;88.47
65378;SHT31;51982;51.042;13.806;2023-06-10T00:03:50;21.96;88.69
65378;SHT31;51982;51.042;13.806;2023-06-10T00:06:15;21.99;88.85
65378;SHT31;51982;51.042;13.806;2023-06-10T00:08:40;21.98;88.65
65378;SHT31;51982;51.042;13.806;2023-06-10T00:11:05;21.96;88.73
65378;SHT31;51982;51.042;13.806;2023-06-10T00:13:31;21.95;88.69
65378;SHT31;51982;51.042;13.806;2023-06-10T00:15:56;21.98;88.67
65378;SHT31;51982;51.042;13.806;2023-06-10T00:18:21;21.92;88.57
65378;SHT31;51982;51.042;13.806;2023-06-10T00:20:47;21.89;88.38
65378;SHT31;51982;51.042;13.806;2023-06-10T00:23:14;21.88;88.65
65378;SHT31;51982;51.042;13.806;2023-06-10T00:25:39;21.86;88.31
65378;SHT31;51982;51.042;13.806;2023-06-10T00:28:05;21.84;88.36
65378;SHT31;51982;51.042;13.806;2023-06-10T00:30:30;21.81;88.50
65378;SHT31;51982;51.042;13.806;2023-06-10T00:32:55;21.82;88.29
65378;SHT31;51982;51.042;13.806;2023-06-10T00:35:21;21.82;88.38
65378;SHT31;51982;51.042;13.806;2023-06-10T00:37:46;21.79;88.24
65378;SHT31;51982;51.042;13.806;2023-06-10T00:40:11;21.79;88.29
65378;SHT31;51982;51.042;13.806;2023-06-10T00:42:37;21.81;88.43
65378;SHT31;51982;51.042;13.806;2023-06-10T00:45:02;21.77;88.24
65378;SHT31;51982;51.042;13.806;2023-06-10T00:47:28;21.75;88.11
65378;SHT31;51982;51.042;13.806;2023-06-10T00:49:54;21.69;88.03
65378;SHT31;51982;51.042;13.806;2023-06-10T00:52:22;21.69;87.69
65378;SHT31;51982;51.042;13.806;2023-06-10T00:54:47;21.68;87.85
65378;SHT31;51982;51.042;13.806;2023-06-10T00:57:13;21.68;87.64
65378;SHT31;51982;51.042;13.806;2023-06-10T00:59:40;21.59;87.55
65378;SHT31;51982;51.042;13.806;2023-06-10T01:02:05;21.59;87.49
65378;SHT31;51982;51.042;13.806;2023-06-10T01:04:32;21.57;87.28
65378;SHT31;51982;51.042;13.806;2023-06-10T01:07:11;21.54;86.86
65378;SHT31;51982;51.042;13.806;2023-06-10T01:09:46;21.52;87.15
65378;SHT31;51982;51.042;13.806;2023-06-10T01:12:31;21.52;87.02
65378;SHT31;51982;51.042;13.806;2023-06-10T01:14:59;21.54;86.89
65378;SHT31;51982;51.042;13.806;2023-06-10T01:17:25;21.54;86.53
65378;SHT31;51982;51.042;13.806;2023-06-10T01:19:55;21.48;86.52
65378;SHT31;51982;51.042;13.806;2023-06-10T01:22:25;21.45;86.48
65378;SHT31;51982;51.042;13.806;2023-06-10T01:24:53;21.41;86.12
65378;SHT31;51982;51.042;13.806;2023-06-10T01:27:21;21.44;86.20
65378;SHT31;51982;51.042;13.806;2023-06-10T01:29:50;21.40;85.85
65378;SHT31;51982;51.042;13.806;2023-06-10T01:32:29;21.37;85.44
65378;SHT31;51982;51.042;13.806;2023-06-10T01:34:58;21.40;85.51
65378;SHT31;51982;51.042;13.806;2023-06-10T01:37:25;21.38;85.41
65378;SHT31;51982;51.042;13.806;2023-06-10T01:39:51;21.33;85.13
65378;SHT31;51982;51.042;13.806;2023-06-10T01:42:18;21.31;85.13
65378;SHT31;51982;51.042;13.806;2023-06-10T01:44:43;21.30;84.98
65378;SHT31;51982;51.042;13.806;2023-06-10T01:47:09;21.26;85.02
65378;SHT31;51982;51.042;13.806;2023-06-10T01:49:34;21.27;84.89
65378;SHT31;51982;51.042;13.806;2023-06-10T01:51:59;21.24;84.70
65378;SHT31;51982;51.042;13.806;2023-06-10T01:54:24;21.24;84.89
65378;SHT31;51982;51.042;13.806;2023-06-10T01:56:50;21.23;84.87
65378;SHT31;51982;51.042;13.806;2023-06-10T01:59:15;21.21;84.98
65378;SHT31;51982;51.042;13.806;2023-06-10T02:01:40;21.17;85.06
65378;SHT31;51982;51.042;13.806;2023-06-10T02:04:06;21.14;84.96
65378;SHT31;51982;51.042;13.806;2023-06-10T02:06:31;21.14;84.77
65378;SHT31;51982;51.042;13.806;2023-06-10T02:08:56;21.14;84.75
65378;SHT31;51982;51.042;13.806;2023-06-10T02:11:22;21.08;84.86
65378;SHT31;51982;51.042;13.806;2023-06-10T02:13:47;21.10;84.77
65378;SHT31;51982;51.042;13.806;2023-06-10T02:16:12;21.08;84.89
65378;SHT31;51982;51.042;13.806;2023-06-10T02:18:38;21.06;84.95
65378;SHT31;51982;51.042;13.806;2023-06-10T02:21:06;21.04;85.13
65378;SHT31;51982;51.042;13.806;2023-06-10T02:23:31;21.01;85.23
65378;SHT31;51982;51.042;13.806;2023-06-10T02:25:57;20.97;85.40
65378;SHT31;51982;51.042;13.806;2023-06-10T02:28:22;20.96;85.45
65378;SHT31;51982;51.042;13.806;2023-06-10T02:30:47;20.96;85.38
65378;SHT31;51982;51.042;13.806;2023-06-10T02:33:12;20.90;85.16
65378;SHT31;51982;51.042;13.806;2023-06-10T02:35:38;20.90;85.42
65378;SHT31;51982;51.042;13.806;2023-06-10T02:38:03;20.87;85.45
65378;SHT31;51982;51.042;13.806;2023-06-10T02:40:29;20.82;85.60
65378;SHT31;51982;51.042;13.806;2023-06-10T02:42:54;20.82;85.60
65378;SHT31;51982;51.042;13.806;2023-06-10T02:45:19;20.82;85.49
65378;SHT31;51982;51.042;13.806;2023-06-10T02:47:45;20.79;85.55
65378;SHT31;51982;51.042;13.806;2023-06-10T02:50:10;20.80;85.44
65378;SHT31;51982;51.042;13.806;2023-06-10T02:52:36;20.73;85.56
65378;SHT31;51982;51.042;13.806;2023-06-10T02:55:02;20.77;85.49
65378;SHT31;51982;51.042;13.806;2023-06-10T02:57:27;20.76;85.64
65378;SHT31;51982;51.042;13.806;2023-06-10T02:59:52;20.72;85.65
65378;SHT31;51982;51.042;13.806;2023-06-10T03:02:18;20.73;85.68
65378;SHT31;51982;51.042;13.806;2023-06-10T03:04:44;20.68;85.71
65378;SHT31;51982;51.042;13.806;2023-06-10T03:07:10;20.62;85.84
65378;SHT31;51982;51.042;13.806;2023-06-10T03:09:36;20.60;85.94
65378;SHT31;51982;51.042;13.806;2023-06-10T03:12:01;20.63;85.96
65378;SHT31;51982;51.042;13.806;2023-06-10T03:14:27;20.62;86.02
65378;SHT31;51982;51.042;13.806;2023-06-10T03:16:52;20.57;86.00
65378;SHT31;51982;51.042;13.806;2023-06-10T03:19:18;20.56;86.07
65378;SHT31;51982;51.042;13.806;2023-06-10T03:21:44;20.56;86.17
65378;SHT31;51982;51.042;13.806;2023-06-10T03:24:09;20.57;86.06
65378;SHT31;51982;51.042;13.806;2023-06-10T03:26:36;20.55;86.06
65378;SHT31;51982;51.042;13.806;2023-06-10T03:29:01;20.52;86.07
65378;SHT31;51982;51.042;13.806;2023-06-10T03:31:26;20.52;86.18
65378;SHT31;51982;51.042;13.806;2023-06-10T03:33:51;20.50;86.02
65378;SHT31;51982;51.042;13.806;2023-06-10T03:36:16;20.49;85.96
65378;SHT31;51982;51.042;13.806;2023-06-10T03:38:42;20.48;86.02
65378;SHT31;51982;51.042;13.806;2023-06-10T03:41:07;20.45;85.98
65378;SHT31;51982;51.042;13.806;2023-06-10T03:43:32;20.48;85.93
65378;SHT31;51982;51.042;13.806;2023-06-10T03:45:57;20.48;86.10
65378;SHT31;51982;51.042;13.806;2023-06-10T03:48:23;20.46;85.82
65378;SHT31;51982;51.042;13.806;2023-06-10T03:50:48;20.43;85.76
65378;SHT31;51982;51.042;13.806;2023-06-10T03:53:16;20.45;85.65
65378;SHT31;51982;51.042;13.806;2023-06-10T03:55:41;20.43;85.64
65378;SHT31;51982;51.042;13.806;2023-06-10T03:58:06;20.40;85.66
65378;SHT31;51982;51.042;13.806;2023-06-10T04:00:32;20.42;85.71
65378;SHT31;51982;51.042;13.806;2023-06-10T04:03:06;20.43;85.62
65378;SHT31;51982;51.042;13.806;2023-06-10T04:05:34;20.36;85.51
65378;SHT31;51982;51.042;13.806;2023-06-10T04:07:59;20.39;85.66
65378;SHT31;51982;51.042;13.806;2023-06-10T04:10:26;20.36;85.56
65378;SHT31;51982;51.042;13.806;2023-06-10T04:12:52;20.36;85.45
65378;SHT31;51982;51.042;13.806;2023-06-10T04:15:17;20.36;85.36
65378;SHT31;51982;51.042;13.806;2023-06-10T04:17:42;20.40;85.33
65378;SHT31;51982;51.042;13.806;2023-06-10T04:20:08;20.43;85.49
65378;SHT31;51982;51.042;13.806;2023-06-10T04:22:33;20.42;85.21
65378;SHT31;51982;51.042;13.806;2023-06-10T04:24:58;20.42;85.18
65378;SHT31;51982;51.042;13.806;2023-06-10T04:27:24;20.46;85.26
65378;SHT31;51982;51.042;13.806;2023-06-10T04:29:49;20.45;85.01
65378;SHT31;51982;51.042;13.806;2023-06-10T04:32:14;20.39;84.91
65378;SHT31;51982;51.042;13.806;2023-06-10T04:34:39;20.43;85.04
65378;SHT31;51982;51.042;13.806;2023-06-10T04:37:05;20.48;85.12
65378;SHT31;51982;51.042;13.806;2023-06-10T04:39:30;20.46;85.23
65378;SHT31;51982;51.042;13.806;2023-06-10T04:41:56;20.46;85.00
65378;SHT31;51982;51.042;13.806;2023-06-10T04:44:21;20.49;84.78
65378;SHT31;51982;51.042;13.806;2023-06-10T04:46:47;20.49;84.93
65378;SHT31;51982;51.042;13.806;2023-06-10T04:49:13;20.52;85.11
65378;SHT31;51982;51.042;13.806;2023-06-10T04:51:39;20.49;85.19
65378;SHT31;51982;51.042;13.806;2023-06-10T04:54:04;20.50;85.04
65378;SHT31;51982;51.042;13.806;2023-06-10T04:56:30;20.53;85.22
65378;SHT31;51982;51.042;13.806;2023-06-10T04:58:56;20.52;85.40
65378;SHT31;51982;51.042;13.806;2023-06-10T05:01:22;20.55;85.65
65378;SHT31;51982;51.042;13.806;2023-06-10T05:03:47;20.56;85.67
65378;SHT31;51982;51.042;13.806;2023-06-10T05:06:12;20.56;85.69
65378;SHT31;51982;51.042;13.806;2023-06-10T05:08:37;20.57;85.58
65378;SHT31;51982;51.042;13.806;2023-06-10T05:11:03;20.59;85.97
65378;SHT31;51982;51.042;13.806;2023-06-10T05:13:28;20.65;86.02
65378;SHT31;51982;51.042;13.806;2023-06-10T05:15:53;20.65;86.11
65378;SHT31;51982;51.042;13.806;2023-06-10T05:18:18;20.68;85.92
65378;SHT31;51982;51.042;13.806;2023-06-10T05:20:44;20.66;85.85
65378;SHT31;51982;51.042;13.806;2023-06-10T05:23:09;20.69;85.79
65378;SHT31;51982;51.042;13.806;2023-06-10T05:25:34;20.69;85.79
65378;SHT31;51982;51.042;13.806;2023-06-10T05:28:00;20.68;85.80
65378;SHT31;51982;51.042;13.806;2023-06-10T05:30:25;20.68;85.82
65378;SHT31;51982;51.042;13.806;2023-06-10T05:32:51;20.72;85.90
65378;SHT31;51982;51.042;13.806;2023-06-10T05:35:17;20.75;86.04
65378;SHT31;51982;51.042;13.806;2023-06-10T05:37:43;20.79;85.94
65378;SHT31;51982;51.042;13.806;2023-06-10T05:40:09;20.79;85.74
65378;SHT31;51982;51.042;13.806;2023-06-10T05:42:34;20.84;85.50
65378;SHT31;51982;51.042;13.806;2023-06-10T05:44:59;20.86;85.41
65378;SHT31;51982;51.042;13.806;2023-06-10T05:47:24;20.89;85.40
65378;SHT31;51982;51.042;13.806;2023-06-10T05:49:50;20.89;85.50
65378;SHT31;51982;51.042;13.806;2023-06-10T05:52:17;20.93;85.44
65378;SHT31;51982;51.042;13.806;2023-06-10T05:54:42;20.89;85.51
65378;SHT31;51982;51.042;13.806;2023-06-10T05:57:07;20.94;85.29
65378;SHT31;51982;51.042;13.806;2023-06-10T05:59:33;20.97;85.27
65378;SHT31;51982;51.042;13.806;2023-06-10T06:01:58;21.03;85.38
65378;SHT31;51982;51.042;13.806;2023-06-10T06:04:23;21.07;85.35
65378;SHT31;51982;51.042;13.806;2023-06-10T06:06:49;21.08;85.52
65378;SHT31;51982;51.042;13.806;2023-06-10T06:09:14;21.14;85.31
65378;SHT31;51982;51.042;13.806;2023-06-10T06:11:39;21.11;84.59
65378;SHT31;51982;51.042;13.806;2023-06-10T06:14:04;21.11;83.81
65378;SHT31;51982;51.042;13.806;2023-06-10T06:16:30;21.13;83.99
65378;SHT31;51982;51.042;13.806;2023-06-10T06:18:55;21.14;84.14
65378;SHT31;51982;51.042;13.806;2023-06-10T06:21:20;21.21;84.48
65378;SHT31;51982;51.042;13.806;2023-06-10T06:23:45;21.21;84.38
65378;SHT31;51982;51.042;13.806;2023-06-10T06:26:11;21.24;83.91
65378;SHT31;51982;51.042;13.806;2023-06-10T06:28:36;21.27;83.75
65378;SHT31;51982;51.042;13.806;2023-06-10T06:31:01;21.30;83.38
65378;SHT31;51982;51.042;13.806;2023-06-10T06:33:26;21.34;83.37
65378;SHT31;51982;51.042;13.806;2023-06-10T06:35:52;21.34;83.27
65378;SHT31;51982;51.042;13.806;2023-06-10T06:38:17;21.38;83.16
65378;SHT31;51982;51.042;13.806;2023-06-10T06:40:42;21.43;83.21
65378;SHT31;51982;51.042;13.806;2023-06-10T06:43:07;21.47;83.27
65378;SHT31;51982;51.042;13.806;2023-06-10T06:45:33;21.50;83.52
65378;SHT31;51982;51.042;13.806;2023-06-10T06:47:59;21.54;83.52
65378;SHT31;51982;51.042;13.806;2023-06-10T06:50:24;21.52;83.70
65378;SHT31;51982;51.042;13.806;2023-06-10T06:52:49;21.58;83.52
65378;SHT31;51982;51.042;13.806;2023-06-10T06:55:14;21.61;83.26
65378;SHT31;51982;51.042;13.806;2023-06-10T06:57:43;21.64;83.09
65378;SHT31;51982;51.042;13.806;2023-06-10T07:00:08;21.66;82.76
65378;SHT31;51982;51.042;13.806;2023-06-10T07:02:34;21.69;82.55
65378;SHT31;51982;51.042;13.806;2023-06-10T07:05:00;21.79;82.65
65378;SHT31;51982;51.042;13.806;2023-06-10T07:07:25;21.79;82.50
65378;SHT31;51982;51.042;13.806;2023-06-10T07:09:50;21.85;82.43
65378;SHT31;51982;51.042;13.806;2023-06-10T07:12:16;21.89;82.42
65378;SHT31;51982;51.042;13.806;2023-06-10T07:14:42;21.95;82.33
65378;SHT31;51982;51.042;13.806;2023-06-10T07:17:08;21.98;82.06
65378;SHT31;51982;51.042;13.806;2023-06-10T07:19:33;22.02;82.07
65378;SHT31;51982;51.042;13.806;2023-06-10T07:21:58;22.03;82.00
65378;SHT31;51982;51.042;13.806;2023-06-10T07:24:23;22.06;82.13
65378;SHT31;51982;51.042;13.806;2023-06-10T07:26:49;22.09;82.16
65378;SHT31;51982;51.042;13.806;2023-06-10T07:29:14;22.13;82.01
65378;SHT31;51982;51.042;13.806;2023-06-10T07:31:41;22.15;81.97
65378;SHT31;51982;51.042;13.806;2023-06-10T07:34:06;22.17;81.95
65378;SHT31;51982;51.042;13.806;2023-06-10T07:36:31;22.19;82.13
65378;SHT31;51982;51.042;13.806;2023-06-10T07:38:56;22.25;82.01
65378;SHT31;51982;51.042;13.806;2023-06-10T07:41:25;22.29;81.66
65378;SHT31;51982;51.042;13.806;2023-06-10T07:43:52;22.35;81.31
65378;SHT31;51982;51.042;13.806;2023-06-10T07:46:20;22.37;81.23
65378;SHT31;51982;51.042;13.806;2023-06-10T07:48:46;22.39;81.41
65378;SHT31;51982;51.042;13.806;2023-06-10T07:51:11;22.43;81.48
65378;SHT31;51982;51.042;13.806;2023-06-10T07:53:36;22.46;81.20
65378;SHT31;51982;51.042;13.806;2023-06-10T07:56:02;22.47;80.92
65378;SHT31;51982;51.042;13.806;2023-06-10T07:58:27;22.53;81.08
65378;SHT31;51982;51.042;13.806;2023-06-10T08:00:53;22.57;81.06
65378;SHT31;51982;51.042;13.806;2023-06-10T08:03:19;22.59;81.00
65378;SHT31;51982;51.042;13.806;2023-06-10T08:05:44;22.64;80.91
65378;SHT31;51982;51.042;13.806;2023-06-10T08:08:09;22.63;80.73
65378;SHT31;51982;51.042;13.806;2023-06-10T08:13:32;22.60;80.71
65378;SHT31;51982;51.042;13.806;2023-06-10T08:15:57;22.59;80.62
65378;SHT31;51982;51.042;13.806;2023-06-10T08:18:22;22.63;80.82
65378;SHT31;51982;51.042;13.806;2023-06-10T08:20:47;22.61;80.59
65378;SHT31;51982;51.042;13.806;2023-06-10T08:23:16;22.67;80.62
65378;SHT31;51982;51.042;13.806;2023-06-10T08:25:41;22.70;80.91
65378;SHT31;51982;51.042;13.806;2023-06-10T08:28:06;22.73;80.76
65378;SHT31;51982;51.042;13.806;2023-06-10T08:30:49;22.77;80.74
65378;SHT31;51982;51.042;13.806;2023-06-10T08:33:15;22.81;80.83
65378;SHT31;51982;51.042;13.806;2023-06-10T08:35:40;22.86;80.66
65378;SHT31;51982;51.042;13.806;2023-06-10T08:38:05;22.90;80.34
65378;SHT31;51982;51.042;13.806;2023-06-10T08:40:30;22.94;79.83
65378;SHT31;51982;51.042;13.806;2023-06-10T08:43:37;23.01;79.12
65378;SHT31;51982;51.042;13.806;2023-06-10T08:46:04;23.08;79.53
65378;SHT31;51982;51.042;13.806;2023-06-10T08:48:34;23.12;79.68
65378;SHT31;51982;51.042;13.806;2023-06-10T08:51:03;23.15;79.70
65378;SHT31;51982;51.042;13.806;2023-06-10T08:53:29;23.22;79.52
65378;SHT31;51982;51.042;13.806;2023-06-10T08:55:58;23.29;79.70
65378;SHT31;51982;51.042;13.806;2023-06-10T08:58:26;23.31;78.97
65378;SHT31;51982;51.042;13.806;2023-06-10T09:00:52;23.37;78.81
65378;SHT31;51982;51.042;13.806;2023-06-10T09:03:17;23.44;78.79
65378;SHT31;51982;51.042;13.806;2023-06-10T09:05:43;23.45;78.72
65378;SHT31;51982;51.042;13.806;2023-06-10T09:08:09;23.49;78.52
65378;SHT31;51982;51.042;13.806;2023-06-10T09:10:40;23.54;78.60
65378;SHT31;51982;51.042;13.806;2023-06-10T09:13:05;23.55;78.79
65378;SHT31;51982;51.042;13.806;2023-06-10T09:15:31;23.58;78.78
65378;SHT31;51982;51.042;13.806;2023-06-10T09:17:56;23.58;78.73
65378;SHT31;51982;51.042;13.806;2023-06-10T09:20:21;23.59;78.64
65378;SHT31;51982;51.042;13.806;2023-06-10T09:22:47;23.63;78.28
65378;SHT31;51982;51.042;13.806;2023-06-10T09:25:13;23.63;77.96
65378;SHT31;51982;51.042;13.806;2023-06-10T09:30:34;23.79;77.40
65378;SHT31;51982;51.042;13.806;2023-06-10T09:33:02;23.86;77.60
65378;SHT31;51982;51.042;13.806;2023-06-10T09:35:29;23.93;77.06
65378;SHT31;51982;51.042;13.806;2023-06-10T09:37:56;23.99;76.96
65378;SHT31;51982;51.042;13.806;2023-06-10T09:40:22;24.02;77.36
65378;SHT31;51982;51.042;13.806;2023-06-10T09:42:52;24.05;77.14
65378;SHT31;51982;51.042;13.806;2023-06-10T09:45:19;24.08;76.88
65378;SHT31;51982;51.042;13.806;2023-06-10T09:47:55;24.12;76.49
65378;SHT31;51982;51.042;13.806;2023-06-10T09:50:20;24.14;77.35
65378;SHT31;51982;51.042;13.806;2023-06-10T09:52:46;24.16;76.96
65378;SHT31;51982;51.042;13.806;2023-06-10T09:55:13;24.16;76.88
65378;SHT31;51982;51.042;13.806;2023-06-10T09:57:38;24.17;77.24
65378;SHT31;51982;51.042;13.806;2023-06-10T10:00:10;24.19;77.10
65378;SHT31;51982;51.042;13.806;2023-06-10T10:02:44;24.23;76.54
65378;SHT31;51982;51.042;13.806;2023-06-10T10:05:12;24.24;75.94
65378;SHT31;51982;51.042;13.806;2023-06-10T10:07:38;24.31;74.63
65378;SHT31;51982;51.042;13.806;2023-06-10T10:10:03;24.39;74.24
65378;SHT31;51982;51.042;13.806;2023-06-10T10:12:29;24.49;75.00
65378;SHT31;51982;51.042;13.806;2023-06-10T10:14:55;24.51;74.88
65378;SHT31;51982;51.042;13.806;2023-06-10T10:17:22;24.51;74.72
65378;SHT31;51982;51.042;13.806;2023-06-10T10:20:00;24.47;72.95
65378;SHT31;51982;51.042;13.806;2023-06-10T10:22:31;24.47;71.57
65378;SHT31;51982;51.042;13.806;2023-06-10T10:25:02;24.49;71.44
65378;SHT31;51982;51.042;13.806;2023-06-10T10:27:31;24.53;70.73
65378;SHT31;51982;51.042;13.806;2023-06-10T10:29:58;24.59;71.22
65378;SHT31;51982;51.042;13.806;2023-06-10T10:32:31;24.65;72.53
65378;SHT31;51982;51.042;13.806;2023-06-10T10:37:32;24.75;73.64
65378;SHT31;51982;51.042;13.806;2023-06-10T10:40:00;24.80;73.89
65378;SHT31;51982;51.042;13.806;2023-06-10T10:42:26;24.87;73.47
65378;SHT31;51982;51.042;13.806;2023-06-10T10:44:52;24.95;73.35
65378;SHT31;51982;51.042;13.806;2023-06-10T10:47:20;24.98;73.12
65378;SHT31;51982;51.042;13.806;2023-06-10T10:49:48;25.04;71.72
65378;SHT31;51982;51.042;13.806;2023-06-10T10:52:15;25.14;71.22
65378;SHT31;51982;51.042;13.806;2023-06-10T10:54:43;25.28;70.12
65378;SHT31;51982;51.042;13.806;2023-06-10T10:57:17;25.36;69.60
65378;SHT31;51982;51.042;13.806;2023-06-10T11:02:16;25.49;69.42
65378;SHT31;51982;51.042;13.806;2023-06-10T11:04:49;25.55;68.40
65378;SHT31;51982;51.042;13.806;2023-06-10T11:07:15;25.58;68.62
65378;SHT31;51982;51.042;13.806;2023-06-10T11:10:28;25.50;67.32
65378;SHT31;51982;51.042;13.806;2023-06-10T11:12:54;25.53;68.45
65378;SHT31;51982;51.042;13.806;2023-06-10T11:15:22;25.61;68.03
65378;SHT31;51982;51.042;13.806;2023-06-10T11:18:07;25.65;67.28
65378;SHT31;51982;51.042;13.806;2023-06-10T11:26:09;25.67;67.06
65378;SHT31;51982;51.042;13.806;2023-06-10T11:28:35;25.63;67.17
65378;SHT31;51982;51.042;13.806;2023-06-10T11:31:01;25.65;67.72
65378;SHT31;51982;51.042;13.806;2023-06-10T11:33:26;25.70;68.33
65378;SHT31;51982;51.042;13.806;2023-06-10T11:35:52;25.76;68.42
65378;SHT31;51982;51.042;13.806;2023-06-10T11:38:18;25.82;68.69
65378;SHT31;51982;51.042;13.806;2023-06-10T11:40:50;25.84;68.61
65378;SHT31;51982;51.042;13.806;2023-06-10T11:43:17;25.89;68.48
65378;SHT31;51982;51.042;13.806;2023-06-10T11:45:43;25.97;67.75
65378;SHT31;51982;51.042;13.806;2023-06-10T11:48:09;26.03;67.38
65378;SHT31;51982;51.042;13.806;2023-06-10T11:50:34;26.08;67.30
65378;SHT31;51982;51.042;13.806;2023-06-10T11:53:00;26.14;67.45
65378;SHT31;51982;51.042;13.806;2023-06-10T11:55:46;26.13;66.53
65378;SHT31;51982;51.042;13.806;2023-06-10T11:58:19;26.21;66.26
65378;SHT31;51982;51.042;13.806;2023-06-10T12:00:53;26.21;65.17
65378;SHT31;51982;51.042;13.806;2023-06-10T12:03:20;26.24;65.06
65378;SHT31;51982;51.042;13.806;2023-06-10T12:05:58;26.21;64.34
65378;SHT31;51982;51.042;13.806;2023-06-10T12:08:24;26.21;64.43
65378;SHT31;51982;51.042;13.806;2023-06-10T12:10:50;26.24;64.54
65378;SHT31;51982;51.042;13.806;2023-06-10T12:13:15;26.27;64.62
65378;SHT31;51982;51.042;13.806;2023-06-10T12:15:42;26.34;65.31
65378;SHT31;51982;51.042;13.806;2023-06-10T12:18:08;26.37;65.26
65378;SHT31;51982;51.042;13.806;2023-06-10T12:20:35;26.38;65.24
65378;SHT31;51982;51.042;13.806;2023-06-10T12:23:09;26.45;64.76
65378;SHT31;51982;51.042;13.806;2023-06-10T12:25:34;26.48;64.44
65378;SHT31;51982;51.042;13.806;2023-06-10T12:28:02;26.52;63.90
65378;SHT31;51982;51.042;13.806;2023-06-10T12:30:31;26.51;62.91
65378;SHT31;51982;51.042;13.806;2023-06-10T12:32:59;26.52;62.60
65378;SHT31;51982;51.042;13.806;2023-06-10T12:35:27;26.51;62.38
65378;SHT31;51982;51.042;13.806;2023-06-10T12:38:05;26.48;62.06
65378;SHT31;51982;51.042;13.806;2023-06-10T12:40:37;26.48;62.77
65378;SHT31;51982;51.042;13.806;2023-06-10T12:43:03;26.51;62.84
65378;SHT31;51982;51.042;13.806;2023-06-10T12:45:39;26.45;61.13
65378;SHT31;51982;51.042;13.806;2023-06-10T12:48:17;26.44;60.87
65378;SHT31;51982;51.042;13.806;2023-06-10T12:50:44;26.44;61.81
65378;SHT31;51982;51.042;13.806;2023-06-10T12:53:10;26.45;62.26
65378;SHT31;51982;51.042;13.806;2023-06-10T12:55:36;26.44;62.40
65378;SHT31;51982;51.042;13.806;2023-06-10T12:58:02;26.47;62.53
65378;SHT31;51982;51.042;13.806;2023-06-10T13:00:28;26.51;62.88
65378;SHT31;51982;51.042;13.806;2023-06-10T13:02:56;26.51;62.57
65378;SHT31;51982;51.042;13.806;2023-06-10T13:05:22;26.55;62.25
65378;SHT31;51982;51.042;13.806;2023-06-10T13:07:47;26.59;62.17
65378;SHT31;51982;51.042;13.806;2023-06-10T13:10:14;26.59;61.43
65378;SHT31;51982;51.042;13.806;2023-06-10T13:12:39;26.59;61.54
65378;SHT31;51982;51.042;13.806;2023-06-10T13:15:05;26.57;61.63
65378;SHT31;51982;51.042;13.806;2023-06-10T13:17:30;26.59;61.97
65378;SHT31;51982;51.042;13.806;2023-06-10T13:19:56;26.55;61.48
65378;SHT31;51982;51.042;13.806;2023-06-10T13:22:21;26.59;61.30
65378;SHT31;51982;51.042;13.806;2023-06-10T13:24:46;26.65;61.32
65378;SHT31;51982;51.042;13.806;2023-06-10T13:27:12;26.65;61.03
65378;SHT31;51982;51.042;13.806;2023-06-10T13:29:39;26.68;60.98
65378;SHT31;51982;51.042;13.806;2023-06-10T13:32:05;26.74;60.11
65378;SHT31;51982;51.042;13.806;2023-06-10T13:34:30;26.72;59.81
65378;SHT31;51982;51.042;13.806;2023-06-10T13:36:55;26.71;58.67
65378;SHT31;51982;51.042;13.806;2023-06-10T13:39:21;26.74;57.72
65378;SHT31;51982;51.042;13.806;2023-06-10T13:41:46;26.72;58.01
65378;SHT31;51982;51.042;13.806;2023-06-10T13:44:11;26.74;57.24
65378;SHT31;51982;51.042;13.806;2023-06-10T13:46:36;26.79;57.55
65378;SHT31;51982;51.042;13.806;2023-06-10T13:49:02;26.81;58.36
65378;SHT31;51982;51.042;13.806;2023-06-10T13:51:27;26.82;58.75
65378;SHT31;51982;51.042;13.806;2023-06-10T13:53:52;26.84;57.46
65378;SHT31;51982;51.042;13.806;2023-06-10T13:56:18;26.81;54.48
65378;SHT31;51982;51.042;13.806;2023-06-10T13:58:43;26.85;53.28
65378;SHT31;51982;51.042;13.806;2023-06-10T14:01:09;26.89;53.30
65378;SHT31;51982;51.042;13.806;2023-06-10T14:03:34;26.85;53.07
65378;SHT31;51982;51.042;13.806;2023-06-10T14:06:00;26.91;54.06
65378;SHT31;51982;51.042;13.806;2023-06-10T14:08:25;26.91;54.91
65378;SHT31;51982;51.042;13.806;2023-06-10T14:10:50;26.89;54.38
65378;SHT31;51982;51.042;13.806;2023-06-10T14:13:16;26.92;54.73
65378;SHT31;51982;51.042;13.806;2023-06-10T14:15:42;26.89;55.00
65378;SHT31;51982;51.042;13.806;2023-06-10T14:18:07;26.92;55.29
65378;SHT31;51982;51.042;13.806;2023-06-10T14:20:32;26.92;55.19
65378;SHT31;51982;51.042;13.806;2023-06-10T14:22:58;26.92;55.05
65378;SHT31;51982;51.042;13.806;2023-06-10T14:25:24;26.95;54.85
65378;SHT31;51982;51.042;13.806;2023-06-10T14:27:49;26.96;55.17
65378;SHT31;51982;51.042;13.806;2023-06-10T14:30:14;26.96;54.45
65378;SHT31;51982;51.042;13.806;2023-06-10T14:32:40;27.00;54.58
65378;SHT31;51982;51.042;13.806;2023-06-10T14:35:06;26.99;54.12
65378;SHT31;51982;51.042;13.806;2023-06-10T14:37:31;27.00;53.52
65378;SHT31;51982;51.042;13.806;2023-06-10T14:39:56;26.99;53.50
65378;SHT31;51982;51.042;13.806;2023-06-10T14:42:22;26.98;52.81
65378;SHT31;51982;51.042;13.806;2023-06-10T14:44:47;27.02;53.10
65378;SHT31;51982;51.042;13.806;2023-06-10T14:47:12;27.00;53.26
65378;SHT31;51982;51.042;13.806;2023-06-10T14:49:38;27.02;53.85
65378;SHT31;51982;51.042;13.806;2023-06-10T14:52:03;26.99;53.51
65378;SHT31;51982;51.042;13.806;2023-06-10T14:54:28;27.00;53.44
65378;SHT31;51982;51.042;13.806;2023-06-10T14:56:54;27.03;54.07
65378;SHT31;51982;51.042;13.806;2023-06-10T14:59:19;27.02;54.26
65378;SHT31;51982;51.042;13.806;2023-06-10T15:01:44;27.03;54.23
65378;SHT31;51982;51.042;13.806;2023-06-10T15:04:09;27.06;54.57
65378;SHT31;51982;51.042;13.806;2023-06-10T15:06:35;27.05;55.06
65378;SHT31;51982;51.042;13.806;2023-06-10T15:09:00;27.05;55.42
65378;SHT31;51982;51.042;13.806;2023-06-10T15:11:25;27.05;55.66
65378;SHT31;51982;51.042;13.806;2023-06-10T15:13:50;27.06;56.54
65378;SHT31;51982;51.042;13.806;2023-06-10T15:16:16;27.08;56.53
65378;SHT31;51982;51.042;13.806;2023-06-10T15:18:41;27.08;56.90
65378;SHT31;51982;51.042;13.806;2023-06-10T15:21:06;27.06;57.60
65378;SHT31;51982;51.042;13.806;2023-06-10T15:23:31;27.05;57.60
65378;SHT31;51982;51.042;13.806;2023-06-10T15:25:57;27.08;57.63
65378;SHT31;51982;51.042;13.806;2023-06-10T15:28:22;27.06;57.65